sensor_id;sensor_type;location;lat;lon;timestamp;temperature;humidity
74384;DHT22;62824;52.994;-3.936;2023-02-28T00:00:28;6.00;99.90
74384;DHT22;62824;52.994;-3.936;2023-02-28T00:02:54;6.10;99.90
74384;DHT22;62824;52.994;-3.936;2023-02-28T00:05:21;6.10;99.90
74384;DHT22;62824;52.994;-3.936;2023-02-28T00:07:48;6.00;99.90
74384;DHT22;62824;52.994;-3.936;2023-02-28T00:10:22;6.00;99.90
74384;DHT22;62824;52.994;-3.936;2023-02-28T00:12:50;6.00;99.90
74384;DHT22;62824;52.994;-3.936;2023-02-28T00:15:16;5.90;99.90
74384;DHT22;62824;52.994;-3.936;2023-02-28T00:17:43;6.00;99.90
74384;DHT22;62824;52.994;-3.936;2023-02-28T00:20:10;6.00;99.90
74384;DHT22;62824;52.994;-3.936;2023-02-28T00:22:45;6.00;99.90
74384;DHT22;62824;52.994;-3.936;2023-02-28T00:25:13;5.90;99.90
74384;DHT22;62824;52.994;-3.936;2023-02-28T00:27:40;5.90;99.90
74384;DHT22;62824;52.994;-3.936;2023-02-28T00:30:09;5.90;99.90
74384;DHT22;62824;52.994;-3.936;2023-02-28T00:32:35;5.90;99.90
74384;DHT22;62824;52.994;-3.936;2023-02-28T00:35:02;6.00;99.90
74384;DHT22;62824;52.994;-3.936;2023-02-28T00:37:28;6.00;99.90
74384;DHT22;62824;52.994;-3.936;2023-02-28T00:39:53;6.00;99.90
74384;DHT22;62824;52.994;-3.936;2023-02-28T00:42:19;5.90;99.90
74384;DHT22;62824;52.994;-3.936;2023-02-28T00:44:45;5.90;99.90
74384;DHT22;62824;52.994;-3.936;2023-02-28T00:47:10;5.90;99.90
74384;DHT22;62824;52.994;-3.936;2023-02-28T00:49:36;5.90;99.90
74384;DHT22;62824;52.994;-3.936;2023-02-28T00:52:02;5.90;99.90
74384;DHT22;62824;52.994;-3.936;2023-02-28T00:54:28;5.90;99.90
74384;DHT22;62824;52.994;-3.936;2023-02-28T00:56:54;5.90;99.90
74384;DHT22;62824;52.994;-3.936;2023-02-28T00:59:20;5.90;99.90
74384;DHT22;62824;52.994;-3.936;2023-02-28T01:01:47;5.90;99.90
74384;DHT22;62824;52.994;-3.936;2023-02-28T01:04:13;5.80;99.90
74384;DHT22;62824;52.994;-3.936;2023-02-28T01:06:39;5.80;99.90
74384;DHT22;62824;52.994;-3.936;2023-02-28T01:09:06;5.90;99.90
74384;DHT22;62824;52.994;-3.936;2023-02-28T01:11:33;5.90;99.90
74384;DHT22;62824;52.994;-3.936;2023-02-28T01:13:59;5.80;99.90
74384;DHT22;62824;52.994;-3.936;2023-02-28T01:16:25;5.80;99.90
74384;DHT22;62824;52.994;-3.936;2023-02-28T01:18:51;5.80;99.90
74384;DHT22;62824;52.994;-3.936;2023-02-28T01:21:18;5.90;99.90
74384;DHT22;62824;52.994;-3.936;2023-02-28T01:23:45;5.90;99.90
74384;DHT22;62824;52.994;-3.936;2023-02-28T01:26:14;5.90;99.90
74384;DHT22;62824;52.994;-3.936;2023-02-28T01:28:40;5.80;99.90
74384;DHT22;62824;52.994;-3.936;2023-02-28T01:31:06;5.80;99.90
74384;DHT22;62824;52.994;-3.936;2023-02-28T01:33:33;5.80;99.90
74384;DHT22;62824;52.994;-3.936;2023-02-28T01:36:04;5.80;99.90
74384;DHT22;62824;52.994;-3.936;2023-02-28T01:38:30;5.60;99.90
74384;DHT22;62824;52.994;-3.936;2023-02-28T01:40:56;5.50;99.90
74384;DHT22;62824;52.994;-3.936;2023-02-28T01:43:24;5.50;99.90
74384;DHT22;62824;52.994;-3.936;2023-02-28T01:45:52;5.50;99.90
74384;DHT22;62824;52.994;-3.936;2023-02-28T01:48:19;5.40;99.90
74384;DHT22;62824;52.994;-3.936;2023-02-28T01:50:46;5.50;99.90
74384;DHT22;62824;52.994;-3.936;2023-02-28T01:53:17;5.40;99.90
74384;DHT22;62824;52.994;-3.936;2023-02-28T01:55:49;5.40;99.90
74384;DHT22;62824;52.994;-3.936;2023-02-28T01:58:18;5.40;99.90
74384;DHT22;62824;52.994;-3.936;2023-02-28T02:00:44;5.40;99.90
74384;DHT22;62824;52.994;-3.936;2023-02-28T02:03:13;5.30;99.90
74384;DHT22;62824;52.994;-3.936;2023-02-28T02:05:40;5.30;99.90
74384;DHT22;62824;52.994;-3.936;2023-02-28T02:08:12;5.50;99.90
74384;DHT22;62824;52.994;-3.936;2023-02-28T02:10:40;5.40;99.90
74384;DHT22;62824;52.994;-3.936;2023-02-28T02:36:37;5.40;99.90
74384;DHT22;62824;52.994;-3.936;2023-02-28T02:41:34;5.40;99.90
74384;DHT22;62824;52.994;-3.936;2023-02-28T02:44:13;5.30;99.90
74384;DHT22;62824;52.994;-3.936;2023-02-28T02:46:43;5.30;99.90
74384;DHT22;62824;52.994;-3.936;2023-02-28T02:49:21;5.40;99.90
74384;DHT22;62824;52.994;-3.936;2023-02-28T02:51:49;5.40;99.90
74384;DHT22;62824;52.994;-3.936;2023-02-28T02:54:23;5.40;99.90
74384;DHT22;62824;52.994;-3.936;2023-02-28T02:56:57;5.40;99.90
74384;DHT22;62824;52.994;-3.936;2023-02-28T02:59:24;5.40;99.90
74384;DHT22;62824;52.994;-3.936;2023-02-28T03:02:00;5.30;99.90
74384;DHT22;62824;52.994;-3.936;2023-02-28T03:04:31;5.20;99.90
74384;DHT22;62824;52.994;-3.936;2023-02-28T03:06:58;5.20;99.90
74384;DHT22;62824;52.994;-3.936;2023-02-28T03:09:25;5.30;99.90
74384;DHT22;62824;52.994;-3.936;2023-02-28T03:11:52;5.20;99.90
74384;DHT22;62824;52.994;-3.936;2023-02-28T03:14:34;5.20;99.90
74384;DHT22;62824;52.994;-3.936;2023-02-28T03:20:01;5.30;99.90
74384;DHT22;62824;52.994;-3.936;2023-02-28T03:22:48;5.30;99.90
74384;DHT22;62824;52.994;-3.936;2023-02-28T03:28:05;5.40;99.90
74384;DHT22;62824;52.994;-3.936;2023-02-28T03:33:12;5.40;99.90
74384;DHT22;62824;52.994;-3.936;2023-02-28T03:35:51;5.30;99.90
74384;DHT22;62824;52.994;-3.936;2023-02-28T03:40:55;5.20;99.90
74384;DHT22;62824;52.994;-3.936;2023-02-28T03:43:27;5.20;99.90
74384;DHT22;62824;52.994;-3.936;2023-02-28T03:45:55;5.20;99.90
74384;DHT22;62824;52.994;-3.936;2023-02-28T03:51:29;5.30;99.90
74384;DHT22;62824;52.994;-3.936;2023-02-28T03:54:26;5.30;99.90
74384;DHT22;62824;52.994;-3.936;2023-02-28T03:57:10;5.30;99.90
74384;DHT22;62824;52.994;-3.936;2023-02-28T03:59:42;5.30;99.90
74384;DHT22;62824;52.994;-3.936;2023-02-28T04:02:09;5.30;99.90
74384;DHT22;62824;52.994;-3.936;2023-02-28T04:04:34;5.20;99.90
74384;DHT22;62824;52.994;-3.936;2023-02-28T04:07:06;5.20;99.90
74384;DHT22;62824;52.994;-3.936;2023-02-28T04:09:32;5.20;99.90
74384;DHT22;62824;52.994;-3.936;2023-02-28T04:11:58;5.10;99.90
74384;DHT22;62824;52.994;-3.936;2023-02-28T04:14:24;5.20;99.90
74384;DHT22;62824;52.994;-3.936;2023-02-28T04:16:50;5.20;99.90
74384;DHT22;62824;52.994;-3.936;2023-02-28T04:19:16;5.20;99.90
74384;DHT22;62824;52.994;-3.936;2023-02-28T04:21:47;5.10;99.90
74384;DHT22;62824;52.994;-3.936;2023-02-28T04:24:16;5.20;99.90
74384;DHT22;62824;52.994;-3.936;2023-02-28T04:26:45;5.30;99.90
74384;DHT22;62824;52.994;-3.936;2023-02-28T04:29:12;5.30;99.90
74384;DHT22;62824;52.994;-3.936;2023-02-28T04:31:39;5.30;99.90
74384;DHT22;62824;52.994;-3.936;2023-02-28T04:34:05;5.20;99.90
74384;DHT22;62824;52.994;-3.936;2023-02-28T04:36:31;5.20;99.90
74384;DHT22;62824;52.994;-3.936;2023-02-28T04:38:57;5.20;99.90
74384;DHT22;62824;52.994;-3.936;2023-02-28T04:41:23;5.20;99.90
74384;DHT22;62824;52.994;-3.936;2023-02-28T04:43:50;5.20;99.90
74384;DHT22;62824;52.994;-3.936;2023-02-28T04:46:16;5.20;99.90
74384;DHT22;62824;52.994;-3.936;2023-02-28T04:48:44;5.20;99.90
74384;DHT22;62824;52.994;-3.936;2023-02-28T04:51:11;5.20;99.90
74384;DHT22;62824;52.994;-3.936;2023-02-28T04:53:39;5.20;99.90
74384;DHT22;62824;52.994;-3.936;2023-02-28T04:56:06;5.20;99.90
74384;DHT22;62824;52.994;-3.936;2023-02-28T04:58:33;5.20;99.90
74384;DHT22;62824;52.994;-3.936;2023-02-28T05:01:05;5.20;99.90
74384;DHT22;62824;52.994;-3.936;2023-02-28T05:03:41;5.20;99.90
74384;DHT22;62824;52.994;-3.936;2023-02-28T05:06:08;5.10;99.90
74384;DHT22;62824;52.994;-3.936;2023-02-28T05:08:34;5.10;99.90
74384;DHT22;62824;52.994;-3.936;2023-02-28T05:11:00;5.00;99.90
74384;DHT22;62824;52.994;-3.936;2023-02-28T05:13:27;5.00;99.90
74384;DHT22;62824;52.994;-3.936;2023-02-28T05:15:53;5.00;99.90
74384;DHT22;62824;52.994;-3.936;2023-02-28T05:18:19;5.20;99.90
74384;DHT22;62824;52.994;-3.936;2023-02-28T05:20:45;5.10;99.90
74384;DHT22;62824;52.994;-3.936;2023-02-28T05:23:12;5.10;99.90
74384;DHT22;62824;52.994;-3.936;2023-02-28T05:25:39;5.10;99.90
74384;DHT22;62824;52.994;-3.936;2023-02-28T05:28:05;5.00;99.90
74384;DHT22;62824;52.994;-3.936;2023-02-28T05:30:31;5.10;99.90
74384;DHT22;62824;52.994;-3.936;2023-02-28T05:32:57;5.10;99.90
74384;DHT22;62824;52.994;-3.936;2023-02-28T05:35:24;5.10;99.90
74384;DHT22;62824;52.994;-3.936;2023-02-28T05:37:50;5.10;99.90
74384;DHT22;62824;52.994;-3.936;2023-02-28T05:40:16;5.10;99.90
74384;DHT22;62824;52.994;-3.936;2023-02-28T05:42:43;5.10;99.90
74384;DHT22;62824;52.994;-3.936;2023-02-28T05:45:09;5.10;99.90
74384;DHT22;62824;52.994;-3.936;2023-02-28T05:47:35;5.10;99.90
74384;DHT22;62824;52.994;-3.936;2023-02-28T05:50:01;5.10;99.90
74384;DHT22;62824;52.994;-3.936;2023-02-28T05:52:28;5.10;99.90
74384;DHT22;62824;52.994;-3.936;2023-02-28T05:54:55;5.10;99.90
74384;DHT22;62824;52.994;-3.936;2023-02-28T05:57:22;5.00;99.90
74384;DHT22;62824;52.994;-3.936;2023-02-28T05:59:47;5.00;99.90
74384;DHT22;62824;52.994;-3.936;2023-02-28T06:02:15;5.10;99.90
74384;DHT22;62824;52.994;-3.936;2023-02-28T06:04:41;5.10;99.90
74384;DHT22;62824;52.994;-3.936;2023-02-28T06:07:07;5.10;99.90
74384;DHT22;62824;52.994;-3.936;2023-02-28T06:09:33;5.10;99.90
74384;DHT22;62824;52.994;-3.936;2023-02-28T06:12:00;5.00;99.90
74384;DHT22;62824;52.994;-3.936;2023-02-28T06:14:28;5.00;99.90
74384;DHT22;62824;52.994;-3.936;2023-02-28T06:16:54;4.90;99.90
74384;DHT22;62824;52.994;-3.936;2023-02-28T06:19:19;5.00;99.90
74384;DHT22;62824;52.994;-3.936;2023-02-28T06:21:49;5.00;99.90
74384;DHT22;62824;52.994;-3.936;2023-02-28T06:24:16;5.10;99.90
74384;DHT22;62824;52.994;-3.936;2023-02-28T06:26:41;5.10;99.90
74384;DHT22;62824;52.994;-3.936;2023-02-28T06:29:07;5.10;99.90
74384;DHT22;62824;52.994;-3.936;2023-02-28T06:31:33;5.10;99.90
74384;DHT22;62824;52.994;-3.936;2023-02-28T06:33:58;5.20;99.90
74384;DHT22;62824;52.994;-3.936;2023-02-28T06:36:24;5.20;99.90
74384;DHT22;62824;52.994;-3.936;2023-02-28T06:38:50;5.10;99.90
74384;DHT22;62824;52.994;-3.936;2023-02-28T06:41:21;5.00;99.90
74384;DHT22;62824;52.994;-3.936;2023-02-28T06:43:47;5.10;99.90
74384;DHT22;62824;52.994;-3.936;2023-02-28T06:46:14;5.10;99.90
74384;DHT22;62824;52.994;-3.936;2023-02-28T06:48:40;5.20;99.90
74384;DHT22;62824;52.994;-3.936;2023-02-28T06:51:12;5.20;99.90
74384;DHT22;62824;52.994;-3.936;2023-02-28T06:53:39;5.10;99.90
74384;DHT22;62824;52.994;-3.936;2023-02-28T06:56:07;5.10;99.90
74384;DHT22;62824;52.994;-3.936;2023-02-28T06:58:34;5.10;99.90
74384;DHT22;62824;52.994;-3.936;2023-02-28T07:01:00;5.00;99.90
74384;DHT22;62824;52.994;-3.936;2023-02-28T07:03:27;5.10;99.90
74384;DHT22;62824;52.994;-3.936;2023-02-28T07:05:52;5.00;99.90
74384;DHT22;62824;52.994;-3.936;2023-02-28T07:08:18;5.10;99.90
74384;DHT22;62824;52.994;-3.936;2023-02-28T07:10:44;5.10;99.90
74384;DHT22;62824;52.994;-3.936;2023-02-28T07:13:11;5.10;99.90
74384;DHT22;62824;52.994;-3.936;2023-02-28T07:15:37;5.20;99.90
74384;DHT22;62824;52.994;-3.936;2023-02-28T07:18:03;5.10;99.90
74384;DHT22;62824;52.994;-3.936;2023-02-28T07:20:29;5.00;99.90
74384;DHT22;62824;52.994;-3.936;2023-02-28T07:22:55;5.00;99.90
74384;DHT22;62824;52.994;-3.936;2023-02-28T07:25:26;5.00;99.90
74384;DHT22;62824;52.994;-3.936;2023-02-28T07:27:54;5.10;99.90
74384;DHT22;62824;52.994;-3.936;2023-02-28T07:30:20;5.10;99.90
74384;DHT22;62824;52.994;-3.936;2023-02-28T07:32:45;5.10;99.90
74384;DHT22;62824;52.994;-3.936;2023-02-28T07:35:11;5.10;99.90
74384;DHT22;62824;52.994;-3.936;2023-02-28T07:37:37;5.10;99.90
74384;DHT22;62824;52.994;-3.936;2023-02-28T07:40:08;5.10;99.90
74384;DHT22;62824;52.994;-3.936;2023-02-28T07:42:37;5.20;99.90
74384;DHT22;62824;52.994;-3.936;2023-02-28T07:45:05;5.20;99.90
74384;DHT22;62824;52.994;-3.936;2023-02-28T07:47:31;5.20;99.90
74384;DHT22;62824;52.994;-3.936;2023-02-28T07:49:57;5.20;99.90
74384;DHT22;62824;52.994;-3.936;2023-02-28T07:52:24;5.30;99.90
74384;DHT22;62824;52.994;-3.936;2023-02-28T07:54:50;5.20;99.90
74384;DHT22;62824;52.994;-3.936;2023-02-28T07:57:16;5.30;99.90
74384;DHT22;62824;52.994;-3.936;2023-02-28T07:59:42;5.30;99.90
74384;DHT22;62824;52.994;-3.936;2023-02-28T08:02:15;5.30;99.90
74384;DHT22;62824;52.994;-3.936;2023-02-28T08:04:41;5.20;99.90
74384;DHT22;62824;52.994;-3.936;2023-02-28T08:07:07;5.30;99.90
74384;DHT22;62824;52.994;-3.936;2023-02-28T08:09:34;5.30;99.90
74384;DHT22;62824;52.994;-3.936;2023-02-28T08:12:00;5.30;99.90
74384;DHT22;62824;52.994;-3.936;2023-02-28T08:14:26;5.30;99.90
74384;DHT22;62824;52.994;-3.936;2023-02-28T08:16:52;5.30;99.90
74384;DHT22;62824;52.994;-3.936;2023-02-28T08:19:18;5.30;99.90
74384;DHT22;62824;52.994;-3.936;2023-02-28T08:21:43;5.30;99.90
74384;DHT22;62824;52.994;-3.936;2023-02-28T08:24:09;5.40;99.90
74384;DHT22;62824;52.994;-3.936;2023-02-28T08:26:35;5.50;99.90
74384;DHT22;62824;52.994;-3.936;2023-02-28T08:29:00;5.50;99.90
74384;DHT22;62824;52.994;-3.936;2023-02-28T08:31:26;5.50;99.90
74384;DHT22;62824;52.994;-3.936;2023-02-28T08:33:53;5.50;99.90
74384;DHT22;62824;52.994;-3.936;2023-02-28T08:36:21;5.60;99.90
74384;DHT22;62824;52.994;-3.936;2023-02-28T08:38:46;5.60;99.90
74384;DHT22;62824;52.994;-3.936;2023-02-28T08:41:12;5.60;99.90
74384;DHT22;62824;52.994;-3.936;2023-02-28T08:43:39;5.50;99.90
74384;DHT22;62824;52.994;-3.936;2023-02-28T08:46:06;5.30;99.90
74384;DHT22;62824;52.994;-3.936;2023-02-28T08:48:34;5.30;99.90
74384;DHT22;62824;52.994;-3.936;2023-02-28T08:51:08;5.30;99.90
74384;DHT22;62824;52.994;-3.936;2023-02-28T08:53:38;5.30;99.90
74384;DHT22;62824;52.994;-3.936;2023-02-28T08:56:12;5.30;99.90
74384;DHT22;62824;52.994;-3.936;2023-02-28T08:58:38;5.30;99.90
74384;DHT22;62824;52.994;-3.936;2023-02-28T09:01:16;5.30;99.90
74384;DHT22;62824;52.994;-3.936;2023-02-28T09:03:43;5.30;99.90
74384;DHT22;62824;52.994;-3.936;2023-02-28T09:06:09;5.40;99.90
74384;DHT22;62824;52.994;-3.936;2023-02-28T09:08:35;5.40;99.90
74384;DHT22;62824;52.994;-3.936;2023-02-28T09:11:02;5.50;99.90
74384;DHT22;62824;52.994;-3.936;2023-02-28T09:13:29;5.50;99.90
74384;DHT22;62824;52.994;-3.936;2023-02-28T09:16:01;5.50;99.90
74384;DHT22;62824;52.994;-3.936;2023-02-28T09:18:27;5.50;99.90
74384;DHT22;62824;52.994;-3.936;2023-02-28T09:20:53;5.50;99.90
74384;DHT22;62824;52.994;-3.936;2023-02-28T09:23:19;5.50;99.90
74384;DHT22;62824;52.994;-3.936;2023-02-28T09:25:50;5.60;99.90
74384;DHT22;62824;52.994;-3.936;2023-02-28T09:28:17;5.70;99.90
74384;DHT22;62824;52.994;-3.936;2023-02-28T09:30:45;5.60;99.90
74384;DHT22;62824;52.994;-3.936;2023-02-28T09:33:12;5.70;99.90
74384;DHT22;62824;52.994;-3.936;2023-02-28T09:35:39;5.80;99.90
74384;DHT22;62824;52.994;-3.936;2023-02-28T09:38:05;5.80;99.90
74384;DHT22;62824;52.994;-3.936;2023-02-28T09:40:41;5.90;99.90
74384;DHT22;62824;52.994;-3.936;2023-02-28T09:43:14;5.90;99.90
74384;DHT22;62824;52.994;-3.936;2023-02-28T09:45:42;5.90;99.90
74384;DHT22;62824;52.994;-3.936;2023-02-28T09:48:20;5.90;99.90
74384;DHT22;62824;52.994;-3.936;2023-02-28T09:50:54;5.90;99.90
74384;DHT22;62824;52.994;-3.936;2023-02-28T09:53:31;5.90;99.90
74384;DHT22;62824;52.994;-3.936;2023-02-28T09:56:12;6.00;99.90
74384;DHT22;62824;52.994;-3.936;2023-02-28T09:59:01;6.20;99.90
74384;DHT22;62824;52.994;-3.936;2023-02-28T10:02:30;7.30;99.90
74384;DHT22;62824;52.994;-3.936;2023-02-28T10:04:51;7.60;99.90
74384;DHT22;62824;52.994;-3.936;2023-02-28T10:09:57;6.50;99.90
74384;DHT22;62824;52.994;-3.936;2023-02-28T10:12:26;6.90;99.90
74384;DHT22;62824;52.994;-3.936;2023-02-28T10:14:53;8.10;99.40
74384;DHT22;62824;52.994;-3.936;2023-02-28T10:17:23;8.60;97.50
74384;DHT22;62824;52.994;-3.936;2023-02-28T10:20:24;8.10;94.40
74384;DHT22;62824;52.994;-3.936;2023-02-28T10:23:21;7.80;97.30
74384;DHT22;62824;52.994;-3.936;2023-02-28T10:25:55;7.70;97.90
74384;DHT22;62824;52.994;-3.936;2023-02-28T10:28:23;7.70;99.90
74384;DHT22;62824;52.994;-3.936;2023-02-28T10:30:52;7.60;99.30
74384;DHT22;62824;52.994;-3.936;2023-02-28T10:33:30;7.60;99.50
74384;DHT22;62824;52.994;-3.936;2023-02-28T10:35:56;7.40;99.90
74384;DHT22;62824;52.994;-3.936;2023-02-28T10:38:25;7.50;99.90
74384;DHT22;62824;52.994;-3.936;2023-02-28T10:40:51;7.50;99.90
74384;DHT22;62824;52.994;-3.936;2023-02-28T10:43:28;7.40;99.90
74384;DHT22;62824;52.994;-3.936;2023-02-28T10:51:00;6.80;99.90
74384;DHT22;62824;52.994;-3.936;2023-02-28T10:53:32;6.70;99.90
74384;DHT22;62824;52.994;-3.936;2023-02-28T11:07:03;7.10;99.90
74384;DHT22;62824;52.994;-3.936;2023-02-28T11:09:33;6.80;99.90
74384;DHT22;62824;52.994;-3.936;2023-02-28T11:12:01;6.70;99.90
74384;DHT22;62824;52.994;-3.936;2023-02-28T11:14:33;6.80;99.90
74384;DHT22;62824;52.994;-3.936;2023-02-28T11:17:18;6.80;99.90
74384;DHT22;62824;52.994;-3.936;2023-02-28T11:19:45;6.80;99.90
74384;DHT22;62824;52.994;-3.936;2023-02-28T11:22:18;7.10;99.90
74384;DHT22;62824;52.994;-3.936;2023-02-28T11:24:47;7.10;99.90
74384;DHT22;62824;52.994;-3.936;2023-02-28T11:27:26;7.90;99.20
74384;DHT22;62824;52.994;-3.936;2023-02-28T11:29:52;9.10;92.50
74384;DHT22;62824;52.994;-3.936;2023-02-28T11:32:25;10.00;91.10
74384;DHT22;62824;52.994;-3.936;2023-02-28T11:35:17;10.70;88.30
74384;DHT22;62824;52.994;-3.936;2023-02-28T11:37:43;11.00;78.40
74384;DHT22;62824;52.994;-3.936;2023-02-28T11:51:27;8.10;93.60
74384;DHT22;62824;52.994;-3.936;2023-02-28T11:54:27;7.90;95.50
74384;DHT22;62824;52.994;-3.936;2023-02-28T11:57:00;8.30;93.60
74384;DHT22;62824;52.994;-3.936;2023-02-28T11:59:42;9.40;90.30
74384;DHT22;62824;52.994;-3.936;2023-02-28T12:02:26;10.80;68.20
74384;DHT22;62824;52.994;-3.936;2023-02-28T12:10:20;9.70;71.90
74384;DHT22;62824;52.994;-3.936;2023-02-28T12:13:10;9.50;77.90
74384;DHT22;62824;52.994;-3.936;2023-02-28T12:21:29;9.10;78.50
74384;DHT22;62824;52.994;-3.936;2023-02-28T12:24:27;8.90;76.70
74384;DHT22;62824;52.994;-3.936;2023-02-28T12:27:00;8.40;80.10
74384;DHT22;62824;52.994;-3.936;2023-02-28T12:32:25;9.80;69.50
74384;DHT22;62824;52.994;-3.936;2023-02-28T12:35:02;9.10;77.00
74384;DHT22;62824;52.994;-3.936;2023-02-28T12:40:03;8.50;78.00
74384;DHT22;62824;52.994;-3.936;2023-02-28T12:42:42;8.30;84.10
74384;DHT22;62824;52.994;-3.936;2023-02-28T12:45:27;8.40;83.50
74384;DHT22;62824;52.994;-3.936;2023-02-28T12:48:00;8.80;79.90
74384;DHT22;62824;52.994;-3.936;2023-02-28T12:50:28;9.20;71.50
74384;DHT22;62824;52.994;-3.936;2023-02-28T12:53:03;8.60;69.60
74384;DHT22;62824;52.994;-3.936;2023-02-28T12:58:45;7.90;77.10
74384;DHT22;62824;52.994;-3.936;2023-02-28T13:10:01;8.90;69.30
74384;DHT22;62824;52.994;-3.936;2023-02-28T13:12:29;8.50;71.60
74384;DHT22;62824;52.994;-3.936;2023-02-28T13:15:16;8.30;78.60
74384;DHT22;62824;52.994;-3.936;2023-02-28T13:17:49;8.00;79.10
74384;DHT22;62824;52.994;-3.936;2023-02-28T13:20:18;7.80;83.50
74384;DHT22;62824;52.994;-3.936;2023-02-28T13:22:49;7.90;84.10
74384;DHT22;62824;52.994;-3.936;2023-02-28T13:28:01;8.10;83.40
74384;DHT22;62824;52.994;-3.936;2023-02-28T13:44:19;7.70;92.30
74384;DHT22;62824;52.994;-3.936;2023-02-28T13:51:53;7.80;90.00
74384;DHT22;62824;52.994;-3.936;2023-02-28T14:05:36;7.70;90.70
74384;DHT22;62824;52.994;-3.936;2023-02-28T14:08:12;7.70;89.80
74384;DHT22;62824;52.994;-3.936;2023-02-28T14:10:46;7.50;91.60
74384;DHT22;62824;52.994;-3.936;2023-02-28T14:16:11;7.40;92.40
74384;DHT22;62824;52.994;-3.936;2023-02-28T14:18:42;7.60;91.60
74384;DHT22;62824;52.994;-3.936;2023-02-28T14:27:00;7.60;91.40
74384;DHT22;62824;52.994;-3.936;2023-02-28T14:32:47;7.50;92.60
74384;DHT22;62824;52.994;-3.936;2023-02-28T14:38:06;7.30;93.10
74384;DHT22;62824;52.994;-3.936;2023-02-28T14:40:38;7.20;93.60
74384;DHT22;62824;52.994;-3.936;2023-02-28T14:43:06;7.10;93.70
74384;DHT22;62824;52.994;-3.936;2023-02-28T14:45:44;7.00;94.20
74384;DHT22;62824;52.994;-3.936;2023-02-28T14:48:15;7.00;94.80
74384;DHT22;62824;52.994;-3.936;2023-02-28T14:50:52;7.20;95.50
74384;DHT22;62824;52.994;-3.936;2023-02-28T14:53:20;7.10;95.60
74384;DHT22;62824;52.994;-3.936;2023-02-28T14:55:47;7.20;95.40
74384;DHT22;62824;52.994;-3.936;2023-02-28T14:58:24;7.10;95.60
74384;DHT22;62824;52.994;-3.936;2023-02-28T15:00:52;7.10;96.00
74384;DHT22;62824;52.994;-3.936;2023-02-28T15:03:34;6.90;96.70
74384;DHT22;62824;52.994;-3.936;2023-02-28T15:06:03;7.00;96.90
74384;DHT22;62824;52.994;-3.936;2023-02-28T15:08:29;7.10;96.60
74384;DHT22;62824;52.994;-3.936;2023-02-28T15:11:23;7.00;96.50
74384;DHT22;62824;52.994;-3.936;2023-02-28T15:13:53;7.00;96.30
74384;DHT22;62824;52.994;-3.936;2023-02-28T15:16:30;6.90;96.70
74384;DHT22;62824;52.994;-3.936;2023-02-28T15:19:00;7.00;96.00
74384;DHT22;62824;52.994;-3.936;2023-02-28T15:21:32;6.90;97.30
74384;DHT22;62824;52.994;-3.936;2023-02-28T15:24:02;6.90;96.20
74384;DHT22;62824;52.994;-3.936;2023-02-28T15:26:42;6.80;97.00
74384;DHT22;62824;52.994;-3.936;2023-02-28T15:29:19;6.90;98.00
74384;DHT22;62824;52.994;-3.936;2023-02-28T15:32:26;7.10;96.70
74384;DHT22;62824;52.994;-3.936;2023-02-28T15:34:52;6.90;97.20
74384;DHT22;62824;52.994;-3.936;2023-02-28T15:37:39;6.90;96.80
74384;DHT22;62824;52.994;-3.936;2023-02-28T15:40:26;6.90;96.00
74384;DHT22;62824;52.994;-3.936;2023-02-28T15:43:05;7.10;96.50
74384;DHT22;62824;52.994;-3.936;2023-02-28T15:50:55;7.00;96.30
74384;DHT22;62824;52.994;-3.936;2023-02-28T15:53:33;7.00;95.90
74384;DHT22;62824;52.994;-3.936;2023-02-28T15:56:12;6.90;95.40
74384;DHT22;62824;52.994;-3.936;2023-02-28T15:58:43;6.90;95.80
74384;DHT22;62824;52.994;-3.936;2023-02-28T16:01:24;7.00;95.40
74384;DHT22;62824;52.994;-3.936;2023-02-28T16:03:53;7.10;95.10
74384;DHT22;62824;52.994;-3.936;2023-02-28T16:09:00;7.00;94.70
74384;DHT22;62824;52.994;-3.936;2023-02-28T16:11:25;6.90;95.20
74384;DHT22;62824;52.994;-3.936;2023-02-28T16:13:52;6.80;95.90
74384;DHT22;62824;52.994;-3.936;2023-02-28T16:16:23;6.70;96.40
74384;DHT22;62824;52.994;-3.936;2023-02-28T16:18:50;6.70;97.20
74384;DHT22;62824;52.994;-3.936;2023-02-28T16:21:16;6.70;97.40
74384;DHT22;62824;52.994;-3.936;2023-02-28T16:23:42;6.70;97.80
74384;DHT22;62824;52.994;-3.936;2023-02-28T16:26:08;6.70;98.20
74384;DHT22;62824;52.994;-3.936;2023-02-28T16:28:37;6.80;97.90
74384;DHT22;62824;52.994;-3.936;2023-02-28T16:31:06;6.80;97.90
74384;DHT22;62824;52.994;-3.936;2023-02-28T16:33:33;6.60;98.10
74384;DHT22;62824;52.994;-3.936;2023-02-28T16:36:00;6.80;98.40
74384;DHT22;62824;52.994;-3.936;2023-02-28T16:38:25;6.80;99.00
74384;DHT22;62824;52.994;-3.936;2023-02-28T16:40:53;6.70;99.10
74384;DHT22;62824;52.994;-3.936;2023-02-28T16:43:23;6.70;99.90
74384;DHT22;62824;52.994;-3.936;2023-02-28T16:45:55;6.60;99.90
74384;DHT22;62824;52.994;-3.936;2023-02-28T16:48:22;6.60;99.90
74384;DHT22;62824;52.994;-3.936;2023-02-28T16:50:48;6.60;99.90
74384;DHT22;62824;52.994;-3.936;2023-02-28T16:53:13;6.60;99.90
74384;DHT22;62824;52.994;-3.936;2023-02-28T16:55:39;6.60;99.90
74384;DHT22;62824;52.994;-3.936;2023-02-28T16:58:05;6.60;99.90
74384;DHT22;62824;52.994;-3.936;2023-02-28T17:00:32;6.60;99.90
74384;DHT22;62824;52.994;-3.936;2023-02-28T17:02:58;6.50;99.90
74384;DHT22;62824;52.994;-3.936;2023-02-28T17:05:37;6.40;99.90
74384;DHT22;62824;52.994;-3.936;2023-02-28T17:08:03;6.50;99.90
74384;DHT22;62824;52.994;-3.936;2023-02-28T17:10:29;6.40;99.90
74384;DHT22;62824;52.994;-3.936;2023-02-28T17:12:55;6.40;99.90
74384;DHT22;62824;52.994;-3.936;2023-02-28T17:15:21;6.50;99.90
74384;DHT22;62824;52.994;-3.936;2023-02-28T17:17:47;6.40;99.90
74384;DHT22;62824;52.994;-3.936;2023-02-28T17:20:18;6.40;99.90
74384;DHT22;62824;52.994;-3.936;2023-02-28T17:22:48;6.30;99.90
74384;DHT22;62824;52.994;-3.936;2023-02-28T17:25:14;6.30;99.90
74384;DHT22;62824;52.994;-3.936;2023-02-28T17:27:39;6.30;99.90
74384;DHT22;62824;52.994;-3.936;2023-02-28T17:30:26;6.30;99.90
74384;DHT22;62824;52.994;-3.936;2023-02-28T17:32:53;6.30;99.90
74384;DHT22;62824;52.994;-3.936;2023-02-28T17:35:19;6.40;99.90
74384;DHT22;62824;52.994;-3.936;2023-02-28T17:37:45;6.30;99.90
74384;DHT22;62824;52.994;-3.936;2023-02-28T17:40:19;6.40;99.90
74384;DHT22;62824;52.994;-3.936;2023-02-28T17:42:45;6.40;99.90
74384;DHT22;62824;52.994;-3.936;2023-02-28T17:45:12;6.40;99.90
74384;DHT22;62824;52.994;-3.936;2023-02-28T17:47:38;6.30;99.90
74384;DHT22;62824;52.994;-3.936;2023-02-28T17:50:04;6.40;99.90
74384;DHT22;62824;52.994;-3.936;2023-02-28T17:52:30;6.40;99.90
74384;DHT22;62824;52.994;-3.936;2023-02-28T17:55:02;6.40;99.90
74384;DHT22;62824;52.994;-3.936;2023-02-28T17:57:28;6.40;99.90
74384;DHT22;62824;52.994;-3.936;2023-02-28T17:59:54;6.50;99.90
74384;DHT22;62824;52.994;-3.936;2023-02-28T18:02:19;6.40;99.90
74384;DHT22;62824;52.994;-3.936;2023-02-28T18:04:45;6.40;99.90
74384;DHT22;62824;52.994;-3.936;2023-02-28T18:07:12;6.40;99.90
74384;DHT22;62824;52.994;-3.936;2023-02-28T18:09:37;6.30;99.90
74384;DHT22;62824;52.994;-3.936;2023-02-28T18:12:03;6.20;99.90
74384;DHT22;62824;52.994;-3.936;2023-02-28T18:14:29;6.20;99.90
74384;DHT22;62824;52.994;-3.936;2023-02-28T18:16:55;6.10;99.90
74384;DHT22;62824;52.994;-3.936;2023-02-28T18:19:22;6.20;99.90